Terminal Aerodrome Forecast
Issued by NWS

Home | Current Version | Previous Version | Text Only | Print | Product List | Glossary On
Versions: 1 2 3 4 5 6 7 8 9 10 11 12 13 14
815
FTPA31 PHFO 192320
TAFHOG
TAF
PHOG 192320Z 2000/2024 05020G30KT P6SM VCSH FEW035 SCT050
     FM200600 05014G20KT P6SM VCSH FEW035 SCT050
     FM202000 05020G30KT P6SM VCSH FEW035 SCT050=

USA.gov is the U.S. government's official web portal to all federal, state and local government web resources and services.